createdAt,value
2023-02-12T00:02:18.391Z,100271.38
2023-02-12T00:04:47.583Z,100255.88
2023-02-12T00:07:14.524Z,100278.97
2023-02-12T00:09:41.650Z,100260.78
2023-02-12T00:12:08.573Z,100259.94
2023-02-12T00:14:38.076Z,100266.94
2023-02-12T00:17:05.047Z,100250.41
2023-02-12T00:19:31.987Z,100259.88
2023-02-12T00:21:59.145Z,100264.78
2023-02-12T00:24:27.063Z,100247.78
2023-02-12T00:26:54.003Z,100260.78
2023-02-12T00:29:20.948Z,100253.50
2023-02-12T00:31:47.909Z,100228.97
2023-02-12T00:34:14.958Z,100243.78
2023-02-12T00:36:41.904Z,100250.84
2023-02-12T00:39:10.574Z,100254.16
2023-02-12T00:41:37.740Z,100254.38
2023-02-12T00:44:05.001Z,100259.34
2023-02-12T00:46:34.935Z,100249.28
2023-02-12T00:49:02.026Z,100248.81
2023-02-12T00:51:28.898Z,100257.19
2023-02-12T00:53:55.773Z,100254.31
2023-02-12T00:56:22.627Z,100250.19
2023-02-12T00:58:49.850Z,100257.94
2023-02-12T01:01:16.958Z,100239.72
2023-02-12T01:03:43.809Z,100242.06
2023-02-12T01:06:10.676Z,100238.16
2023-02-12T01:08:37.500Z,100247.47
2023-02-12T01:11:05.837Z,100247.31
2023-02-12T01:13:34.129Z,100243.78
2023-02-12T01:16:11.053Z,100242.81
2023-02-12T01:18:38.800Z,100253.84
2023-02-12T01:21:11.125Z,100243.47
2023-02-12T01:23:38.010Z,100223.88
2023-02-12T01:26:05.087Z,100232.13
2023-02-12T01:28:32.022Z,100244.97
2023-02-12T01:30:59.124Z,100239.63
2023-02-12T01:33:26.978Z,100231.22
2023-02-12T01:35:55.095Z,100236.63
2023-02-12T01:38:22.157Z,100228.75
2023-02-12T01:40:49.102Z,100197.91
2023-02-12T01:43:16.048Z,100209.25
2023-02-12T01:45:53.984Z,100207.53
2023-02-12T01:48:24.073Z,100195.44
2023-02-12T01:50:53.199Z,100189.38
2023-02-12T01:53:22.139Z,100201.00
2023-02-12T01:55:53.651Z,100195.00
2023-02-12T01:58:21.075Z,100187.63
2023-02-12T02:00:48.614Z,100186.78
2023-02-12T02:03:15.795Z,100186.94
2023-02-12T02:05:57.195Z,100205.22
2023-02-12T02:08:24.214Z,100195.13
2023-02-12T02:10:51.081Z,100196.41
2023-02-12T02:13:37.327Z,100192.19
2023-02-12T02:16:15.751Z,100189.09
2023-02-12T02:18:58.104Z,100182.63
2023-02-12T02:22:03.811Z,100198.19
2023-02-12T02:25:04.595Z,100190.59
2023-02-12T02:28:09.856Z,100187.88
2023-02-12T02:31:14.061Z,100194.50
2023-02-12T02:34:17.304Z,100194.94
2023-02-12T02:37:00.056Z,100210.53
2023-02-12T02:39:33.517Z,100208.63
2023-02-12T02:42:04.880Z,100203.59
2023-02-12T02:44:49.001Z,100201.00
2023-02-12T02:47:19.312Z,100193.91
2023-02-12T02:49:52.511Z,100178.41
2023-02-12T02:52:28.716Z,100214.50
2023-02-12T02:55:01.602Z,100214.53
2023-02-12T02:57:34.190Z,100211.22
2023-02-12T03:00:26.178Z,100202.16
2023-02-12T03:02:59.551Z,100191.44
2023-02-12T03:05:33.615Z,100164.28
2023-02-12T03:08:08.803Z,100201.81
2023-02-12T03:10:40.986Z,100193.16
2023-02-12T03:13:12.420Z,100210.75
2023-02-12T03:15:44.635Z,100212.28
2023-02-12T03:18:36.673Z,100209.34
2023-02-12T03:21:10.829Z,100213.94
2023-02-12T03:23:49.978Z,100215.81
2023-02-12T03:26:22.950Z,100215.22
2023-02-12T03:28:49.912Z,100206.03
2023-02-12T03:31:22.732Z,100223.03
2023-02-12T03:34:17.776Z,100227.16
2023-02-12T03:36:57.493Z,100232.13
2023-02-12T03:39:24.346Z,100234.25
2023-02-12T03:42:13.689Z,100234.59
2023-02-12T03:44:58.505Z,100234.59
2023-02-12T03:47:34.433Z,100240.16
2023-02-12T03:50:23.014Z,100220.59
2023-02-12T03:52:51.186Z,100240.31
2023-02-12T03:55:18.143Z,100225.78
2023-02-12T03:57:49.579Z,100245.50
2023-02-12T04:00:19.758Z,100241.13
2023-02-12T04:02:50.873Z,100241.97
2023-02-12T04:05:24.893Z,100240.44
2023-02-12T04:07:53.188Z,100252.09
2023-02-12T04:10:27.440Z,100240.66
2023-02-12T04:12:54.339Z,100250.22
2023-02-12T04:15:48.693Z,100254.00
2023-02-12T04:18:22.673Z,100238.56
2023-02-12T04:21:11.291Z,100259.09
2023-02-12T04:24:15.551Z,100263.09
2023-02-12T04:26:54.382Z,100260.50
2023-02-12T04:29:55.766Z,100262.16
2023-02-12T04:32:31.760Z,100262.84
2023-02-12T04:35:28.082Z,100273.09
2023-02-12T04:38:18.104Z,100277.31
2023-02-12T04:40:45.765Z,100268.59
2023-02-12T04:43:12.761Z,100270.72
2023-02-12T04:45:39.821Z,100282.06
2023-02-12T04:48:07.158Z,100280.03
2023-02-12T04:50:42.677Z,100281.38
2023-02-12T04:53:10.526Z,100281.56
2023-02-12T04:55:38.087Z,100291.63
2023-02-12T04:58:06.185Z,100300.19
2023-02-12T05:00:33.557Z,100303.97
2023-02-12T05:03:00.486Z,100308.94
2023-02-12T05:05:27.862Z,100315.09
2023-02-12T05:07:54.973Z,100311.34
2023-02-12T05:10:22.202Z,100322.66
2023-02-12T05:12:52.610Z,100295.19
2023-02-12T05:15:19.776Z,100328.38
2023-02-12T05:17:46.937Z,100331.25
2023-02-12T05:20:14.219Z,100322.06
2023-02-12T05:22:42.012Z,100323.72
2023-02-12T05:25:08.836Z,100301.66
2023-02-12T05:27:35.878Z,100326.09
2023-02-12T05:30:02.994Z,100335.28
2023-02-12T05:32:29.774Z,100334.91
2023-02-12T05:34:56.686Z,100344.94
2023-02-12T05:37:23.554Z,100345.69
2023-02-12T05:39:50.715Z,100339.06
2023-02-12T05:42:17.656Z,100360.28
2023-02-12T05:44:44.694Z,100358.31
2023-02-12T05:47:11.736Z,100370.97
2023-02-12T05:49:38.581Z,100360.66
2023-02-12T05:52:05.430Z,100362.22
2023-02-12T05:54:32.331Z,100379.25
2023-02-12T05:56:59.287Z,100383.94
2023-02-12T05:59:26.131Z,100372.41
2023-02-12T06:01:53.294Z,100380.00
2023-02-12T06:04:23.901Z,100380.44
2023-02-12T06:06:52.303Z,100394.75
2023-02-12T06:09:19.228Z,100403.63
2023-02-12T06:11:46.277Z,100393.38
2023-02-12T06:14:16.105Z,100406.13
2023-02-12T06:16:45.763Z,100402.28
2023-02-12T06:19:12.733Z,100402.03
2023-02-12T06:21:39.645Z,100408.06
2023-02-12T06:24:06.843Z,100407.69
2023-02-12T06:26:34.104Z,100413.34
2023-02-12T06:29:02.170Z,100421.91
2023-02-12T06:31:34.581Z,100420.63
2023-02-12T06:34:04.686Z,100425.34
2023-02-12T06:36:31.539Z,100429.25
2023-02-12T06:39:00.606Z,100431.66
2023-02-12T06:41:27.404Z,100419.88
2023-02-12T06:43:54.226Z,100422.34
2023-02-12T06:46:22.288Z,100430.28
2023-02-12T06:48:52.568Z,100436.19
2023-02-12T06:51:21.961Z,100408.81
2023-02-12T06:53:52.009Z,100425.09
2023-02-12T06:56:20.696Z,100433.38
2023-02-12T06:58:52.082Z,100432.31
2023-02-12T07:01:21.670Z,100439.19
2023-02-12T07:03:51.937Z,100441.66
2023-02-12T07:06:19.737Z,100421.81
2023-02-12T07:08:47.388Z,100431.84
2023-02-12T07:11:14.820Z,100456.06
2023-02-12T07:13:42.760Z,100447.09
2023-02-12T07:16:12.730Z,100456.81
2023-02-12T07:18:39.950Z,100461.66
2023-02-12T07:21:08.288Z,100450.31
2023-02-12T07:23:36.360Z,100456.06
2023-02-12T07:26:06.325Z,100462.31
2023-02-12T07:28:33.981Z,100461.34
2023-02-12T07:31:10.577Z,100459.91
2023-02-12T07:33:38.447Z,100453.28
2023-02-12T07:36:07.708Z,100451.84
2023-02-12T07:38:39.611Z,100458.44
2023-02-12T07:41:10.630Z,100452.78
2023-02-12T07:43:38.317Z,100453.03
2023-02-12T07:46:32.537Z,100466.00
2023-02-12T07:49:01.662Z,100457.66
2023-02-12T07:51:29.375Z,100452.22
2023-02-12T07:53:57.029Z,100451.25
2023-02-12T07:56:31.990Z,100450.75
2023-02-12T07:59:00.926Z,100461.66
2023-02-12T08:01:34.511Z,100473.72
2023-02-12T08:04:03.871Z,100468.47
2023-02-12T08:06:32.992Z,100466.50
2023-02-12T08:09:02.250Z,100471.81
2023-02-12T08:11:30.439Z,100465.34
2023-02-12T08:13:58.473Z,100477.66
2023-02-12T08:16:27.552Z,100484.66
2023-02-12T08:18:56.271Z,100494.19
2023-02-12T08:21:26.653Z,100498.03
2023-02-12T08:23:58.184Z,100497.25
2023-02-12T08:26:29.480Z,100498.41
2023-02-12T08:28:57.815Z,100500.38
2023-02-12T08:31:27.592Z,100500.59
2023-02-12T08:33:55.813Z,100482.38
2023-02-12T08:36:38.712Z,100509.13
2023-02-12T08:39:07.189Z,100513.75
2023-02-12T08:41:35.580Z,100514.56
2023-02-12T08:44:04.824Z,100509.25
2023-02-12T08:46:37.142Z,100535.50
2023-02-12T08:49:12.275Z,100536.91
2023-02-12T08:51:41.269Z,100531.91
2023-02-12T08:54:12.105Z,100541.91
2023-02-12T08:56:40.066Z,100534.16
2023-02-12T08:59:08.183Z,100528.03
2023-02-12T09:01:41.851Z,100529.25
2023-02-12T09:04:23.844Z,100540.50
2023-02-12T09:06:51.644Z,100539.44
2023-02-12T09:09:19.908Z,100546.72
2023-02-12T09:11:47.294Z,100550.50
2023-02-12T09:14:16.194Z,100540.50
2023-02-12T09:16:43.700Z,100549.53
2023-02-12T09:19:14.780Z,100550.19
2023-02-12T09:21:42.185Z,100544.16
2023-02-12T09:24:09.652Z,100551.50
2023-02-12T09:26:36.960Z,100555.56
2023-02-12T09:29:05.159Z,100556.91
2023-02-12T09:31:33.382Z,100559.38
2023-02-12T09:34:05.834Z,100572.03
2023-02-12T09:36:33.586Z,100577.66
2023-02-12T09:39:00.933Z,100567.31
2023-02-12T09:41:45.938Z,100581.97
2023-02-12T09:44:58.762Z,100577.78
2023-02-12T09:47:39.440Z,100580.38
2023-02-12T09:50:33.667Z,100576.16
2023-02-12T09:53:01.601Z,100582.84
2023-02-12T09:55:31.907Z,100596.31
2023-02-12T09:58:02.653Z,100588.78
2023-02-12T10:00:44.650Z,100588.00
2023-02-12T10:03:22.379Z,100577.34
2023-02-12T10:06:01.905Z,100583.41
2023-02-12T10:08:40.733Z,100596.31
2023-02-12T10:11:34.703Z,100588.53
2023-02-12T10:14:04.396Z,100593.16
2023-02-12T10:16:44.085Z,100588.28
2023-02-12T10:19:23.036Z,100583.38
2023-02-12T10:22:14.365Z,100583.53
2023-02-12T10:25:28.534Z,100577.41
2023-02-12T10:28:02.337Z,100551.66
2023-02-12T10:30:53.684Z,100581.72
2023-02-12T10:33:39.572Z,100593.47
2023-02-12T10:36:39.972Z,100597.47
2023-02-12T10:39:24.221Z,100588.94
2023-02-12T10:42:03.285Z,100596.13
2023-02-12T10:44:32.348Z,100609.53
2023-02-12T10:46:59.333Z,100594.81
2023-02-12T10:49:26.512Z,100601.47
2023-02-12T10:52:17.654Z,100603.22
2023-02-12T10:54:46.397Z,100596.31
2023-02-12T10:57:26.379Z,100613.16
2023-02-12T11:00:02.778Z,100602.41
2023-02-12T11:03:13.603Z,100604.22
2023-02-12T11:05:57.311Z,100605.97
2023-02-12T11:08:27.430Z,100604.97
2023-02-12T11:10:54.399Z,100604.66
2023-02-12T11:13:26.299Z,100621.38
2023-02-12T11:15:54.052Z,100599.38
2023-02-12T11:18:31.972Z,100617.75
2023-02-12T11:21:06.690Z,100611.13
2023-02-12T11:23:40.545Z,100607.00
2023-02-12T11:26:19.531Z,100617.09
2023-02-12T11:28:58.762Z,100611.66
2023-02-12T11:31:32.279Z,100606.41
2023-02-12T11:34:22.025Z,100624.78
2023-02-12T11:36:54.150Z,100613.44
2023-02-12T11:39:32.593Z,100616.03
2023-02-12T11:42:01.556Z,100618.81
2023-02-12T11:44:34.548Z,100620.16
2023-02-12T11:47:09.491Z,100615.13
2023-02-12T11:50:03.735Z,100604.13
2023-02-12T11:52:34.262Z,100611.19
2023-02-12T11:55:04.916Z,100625.53
2023-02-12T11:57:47.417Z,100607.47
2023-02-12T12:00:20.290Z,100620.63
2023-02-12T12:03:00.551Z,100619.44
2023-02-12T12:05:35.524Z,100621.84
2023-02-12T12:08:21.250Z,100621.28
2023-02-12T12:10:55.543Z,100618.94
2023-02-12T12:13:30.488Z,100627.63
2023-02-12T12:16:27.942Z,100627.66
2023-02-12T12:19:33.024Z,100632.38
2023-02-12T12:22:11.747Z,100637.97
2023-02-12T12:24:53.277Z,100637.31
2023-02-12T12:28:00.038Z,100637.56
2023-02-12T12:31:04.197Z,100637.81
2023-02-12T12:33:44.711Z,100622.63
2023-02-12T12:36:17.629Z,100651.09
2023-02-12T12:39:25.988Z,100651.88
2023-02-12T12:42:01.675Z,100653.66
2023-02-12T12:44:28.409Z,100657.22
2023-02-12T12:47:05.448Z,100646.25
2023-02-12T12:49:50.865Z,100659.16
2023-02-12T12:52:26.706Z,100655.97
2023-02-12T12:55:35.637Z,100652.94
2023-02-12T12:58:14.257Z,100658.97
2023-02-12T13:01:21.523Z,100657.56
2023-02-12T13:04:06.954Z,100663.69
2023-02-12T13:06:52.606Z,100670.06
2023-02-12T13:09:52.493Z,100662.59
2023-02-12T13:12:37.931Z,100680.47
2023-02-12T13:15:38.384Z,100675.34
2023-02-12T13:18:21.288Z,100683.38
2023-02-12T13:21:20.256Z,100673.63
2023-02-12T13:23:57.629Z,100690.25
2023-02-12T13:26:30.987Z,100692.22
2023-02-12T13:29:43.158Z,100704.97
2023-02-12T13:32:16.089Z,100710.94
2023-02-12T13:34:44.713Z,100691.66
2023-02-12T13:37:31.784Z,100719.69
2023-02-12T13:40:03.019Z,100719.69
2023-02-12T13:42:29.953Z,100723.91
2023-02-12T13:45:18.242Z,100735.41
2023-02-12T13:48:24.166Z,100739.31
2023-02-12T13:51:01.079Z,100741.84
2023-02-12T13:54:01.665Z,100745.09
2023-02-12T13:56:33.362Z,100740.84
2023-02-12T13:59:01.037Z,100732.41
2023-02-12T14:01:46.493Z,100743.34
2023-02-12T14:04:19.505Z,100753.56
2023-02-12T14:07:14.287Z,100744.22
2023-02-12T14:09:50.321Z,100768.28
2023-02-12T14:12:40.925Z,100749.03
2023-02-12T14:15:09.402Z,100773.03
2023-02-12T14:17:36.925Z,100776.31
2023-02-12T14:20:06.976Z,100789.38
2023-02-12T14:22:33.980Z,100791.28
2023-02-12T14:25:21.849Z,100685.59
2023-02-12T14:27:52.728Z,100784.78
2023-02-12T14:30:31.712Z,100788.94
2023-02-12T14:33:23.801Z,100791.22
2023-02-12T14:36:15.073Z,100789.44
2023-02-12T14:38:47.465Z,100798.72
2023-02-12T14:41:43.383Z,100800.25
2023-02-12T14:44:23.425Z,100802.75
2023-02-12T14:46:52.806Z,100813.41
2023-02-12T14:49:36.819Z,100808.44
2023-02-12T14:52:06.306Z,100797.44
2023-02-12T14:54:54.630Z,100799.56
2023-02-12T14:57:35.278Z,100805.38
2023-02-12T15:00:17.500Z,100813.78
2023-02-12T15:03:15.230Z,100810.94
2023-02-12T15:05:48.143Z,100813.69
2023-02-12T15:08:37.096Z,100814.88
2023-02-12T15:11:41.323Z,100827.91
2023-02-12T15:14:22.380Z,100766.00
2023-02-12T15:16:59.903Z,100830.19
2023-02-12T15:19:59.878Z,100832.31
2023-02-12T15:22:32.198Z,100838.25
2023-02-12T15:25:27.783Z,100850.56
2023-02-12T15:28:01.214Z,100841.34
2023-02-12T15:30:35.941Z,100843.25
2023-02-12T15:33:05.690Z,100850.34
2023-02-12T15:35:36.037Z,100859.47
2023-02-12T15:38:04.297Z,100862.31
2023-02-12T15:40:32.103Z,100872.84
2023-02-12T15:43:05.085Z,100879.84
2023-02-12T15:45:36.867Z,100886.13
2023-02-12T15:48:09.962Z,100893.22
2023-02-12T15:51:06.422Z,100898.31
2023-02-12T15:53:33.808Z,100908.25
2023-02-12T15:56:02.645Z,100888.91
2023-02-12T15:58:29.491Z,100916.66
2023-02-12T16:01:03.998Z,100928.84
2023-02-12T16:03:32.264Z,100928.47
2023-02-12T16:06:14.024Z,100915.09
2023-02-12T16:08:46.693Z,100944.81
2023-02-12T16:11:17.803Z,100922.06
2023-02-12T16:13:54.217Z,100937.56
2023-02-12T16:16:45.595Z,100946.19
2023-02-12T16:19:33.154Z,100944.53
2023-02-12T16:22:07.833Z,100943.34
2023-02-12T16:24:45.392Z,100954.59
2023-02-12T16:27:15.142Z,100969.28
2023-02-12T16:29:48.448Z,100967.94
2023-02-12T16:32:32.957Z,100986.91
2023-02-12T16:35:07.561Z,100988.78
2023-02-12T16:37:37.478Z,100991.16
2023-02-12T16:40:13.307Z,101001.22
2023-02-12T16:42:40.072Z,101000.59
2023-02-12T16:45:26.631Z,101009.47
2023-02-12T16:48:25.404Z,101013.50
2023-02-12T16:50:56.338Z,100999.75
2023-02-12T16:53:33.406Z,101020.56
2023-02-12T16:56:01.995Z,101031.84
2023-02-12T16:58:29.197Z,101008.50
2023-02-12T17:00:57.952Z,101036.44
2023-02-12T17:03:26.130Z,101029.91
2023-02-12T17:05:55.555Z,101022.72
2023-02-12T17:08:23.925Z,101033.84
2023-02-12T17:10:51.719Z,101041.47
2023-02-12T17:13:20.958Z,101038.66
2023-02-12T17:15:59.869Z,101037.28
2023-02-12T17:18:27.450Z,101037.56
2023-02-12T17:21:03.615Z,101056.84
2023-02-12T17:23:31.346Z,101054.84
2023-02-12T17:25:58.619Z,101065.81
2023-02-12T17:28:25.838Z,101072.13
2023-02-12T17:30:53.748Z,101073.19
2023-02-12T17:33:53.834Z,101071.09
2023-02-12T17:36:20.694Z,101067.53
2023-02-12T17:38:47.549Z,101076.75
2023-02-12T17:41:14.460Z,101062.09
2023-02-12T17:43:41.326Z,101081.34
2023-02-12T17:46:13.237Z,101080.34
2023-02-12T17:48:40.711Z,101093.88
2023-02-12T17:51:11.576Z,101091.38
2023-02-12T17:53:40.320Z,101093.72
2023-02-12T17:56:19.533Z,101101.88
2023-02-12T17:58:47.330Z,101102.88
2023-02-12T18:01:23.474Z,100996.91
2023-02-12T18:03:59.748Z,101105.16
2023-02-12T18:06:30.186Z,101114.31
2023-02-12T18:09:01.936Z,101105.81
2023-02-12T18:11:29.519Z,101117.75
2023-02-12T18:13:57.998Z,101114.41
2023-02-12T18:16:28.045Z,101120.28
2023-02-12T18:18:55.362Z,101124.84
2023-02-12T18:21:22.144Z,101121.94
2023-02-12T18:23:49.061Z,101114.06
2023-02-12T18:26:17.820Z,101127.03
2023-02-12T18:28:45.336Z,101112.84
2023-02-12T18:31:12.925Z,101127.03
2023-02-12T18:33:40.269Z,101124.97
2023-02-12T18:36:10.525Z,101129.19
2023-02-12T18:38:42.077Z,101127.13
2023-02-12T18:41:18.523Z,101116.38
2023-02-12T18:43:48.784Z,101134.94
2023-02-12T18:46:22.214Z,101134.34
2023-02-12T18:48:50.002Z,101140.41
2023-02-12T18:51:22.326Z,101150.03
2023-02-12T18:53:55.514Z,101144.06
2023-02-12T18:56:25.530Z,101141.16
2023-02-12T18:59:00.270Z,101163.66
2023-02-12T19:01:31.572Z,101160.72
2023-02-12T19:04:01.640Z,101156.53
2023-02-12T19:06:30.021Z,101172.59
2023-02-12T19:09:01.260Z,101166.56
2023-02-12T19:11:28.614Z,101183.28
2023-02-12T19:13:56.140Z,101187.03
2023-02-12T19:16:24.941Z,101183.69
2023-02-12T19:18:58.476Z,101191.00
2023-02-12T19:21:28.547Z,101184.13
2023-02-12T19:23:57.320Z,101179.09
2023-02-12T19:26:25.404Z,101205.81
2023-02-12T19:28:52.987Z,101186.84
2023-02-12T19:31:23.191Z,101192.66
2023-02-12T19:34:07.443Z,101186.66
2023-02-12T19:36:36.511Z,101196.22
2023-02-12T19:39:07.131Z,101203.13
2023-02-12T19:41:41.203Z,101200.47
2023-02-12T19:44:26.150Z,101209.81
2023-02-12T19:46:53.435Z,101218.44
2023-02-12T19:49:23.636Z,101218.03
2023-02-12T19:51:50.869Z,101216.53
2023-02-12T19:54:19.831Z,101215.31
2023-02-12T19:56:47.454Z,101230.97
2023-02-12T19:59:19.706Z,101217.41
2023-02-12T20:01:48.366Z,101227.63
2023-02-12T20:04:20.570Z,101232.66
2023-02-12T20:06:52.467Z,101228.03
2023-02-12T20:09:23.456Z,101229.31
2023-02-12T20:11:50.654Z,101224.31
2023-02-12T20:14:18.147Z,101223.28
2023-02-12T20:16:51.113Z,101224.75
2023-02-12T20:19:24.862Z,101223.91
2023-02-12T20:21:56.685Z,101195.78
2023-02-12T20:24:29.749Z,101204.75
2023-02-12T20:26:58.091Z,101219.97
2023-02-12T20:29:25.251Z,101218.09
2023-02-12T20:31:52.920Z,101223.09
2023-02-12T20:34:22.996Z,101220.81
2023-02-12T20:36:50.080Z,101228.34
2023-02-12T20:39:19.706Z,101251.09
2023-02-12T20:41:48.732Z,101238.81
2023-02-12T20:44:20.180Z,101254.00
2023-02-12T20:46:49.084Z,101236.50
2023-02-12T20:49:18.330Z,101238.59
2023-02-12T20:51:45.872Z,101227.09
2023-02-12T20:54:13.170Z,101239.19
2023-02-12T20:56:42.606Z,101248.78
2023-02-12T20:59:11.947Z,101254.00
2023-02-12T21:01:41.240Z,101257.75
2023-02-12T21:04:14.392Z,101242.06
2023-02-12T21:06:41.757Z,101253.56
2023-02-12T21:09:11.467Z,101253.13
2023-02-12T21:11:40.038Z,101253.91
2023-02-12T21:14:23.831Z,101250.34
2023-02-12T21:16:52.806Z,101252.63
2023-02-12T21:19:20.181Z,101266.38
2023-02-12T21:21:47.884Z,101249.28
2023-02-12T21:24:19.003Z,101256.38
2023-02-12T21:26:48.829Z,101265.09
2023-02-12T21:29:15.860Z,101261.75
2023-02-12T21:31:45.968Z,101258.00
2023-02-12T21:34:16.464Z,101256.53
2023-02-12T21:36:45.363Z,101259.03
2023-02-12T21:39:24.545Z,101264.06
2023-02-12T21:41:54.172Z,101278.25
2023-02-12T21:44:22.116Z,101279.69
2023-02-12T21:46:49.520Z,101268.22
2023-02-12T21:49:24.692Z,101271.94
2023-02-12T21:51:53.992Z,101240.41
2023-02-12T21:54:21.494Z,101250.16
2023-02-12T21:56:50.750Z,101266.88
2023-02-12T21:59:18.682Z,101268.94
2023-02-12T22:01:48.432Z,101269.09
2023-02-12T22:04:16.304Z,101259.72
2023-02-12T22:06:46.816Z,101252.09
2023-02-12T22:09:15.612Z,101272.78
2023-02-12T22:11:43.475Z,101261.47
2023-02-12T22:14:15.530Z,101278.13
2023-02-12T22:16:44.255Z,101265.78
2023-02-12T22:19:11.248Z,101294.31
2023-02-12T22:21:40.863Z,101282.16
2023-02-12T22:24:11.500Z,101290.13
2023-02-12T22:26:38.323Z,101288.91
2023-02-12T22:29:08.475Z,101284.28
2023-02-12T22:31:38.065Z,101286.09
2023-02-12T22:34:08.366Z,101250.72
2023-02-12T22:36:37.379Z,101266.59
2023-02-12T22:39:05.533Z,101290.22
2023-02-12T22:41:33.252Z,101285.41
2023-02-12T22:44:01.545Z,101284.06
2023-02-12T22:46:28.392Z,101282.59
2023-02-12T22:48:55.441Z,101292.44
2023-02-12T22:51:25.037Z,101291.19
2023-02-12T22:53:53.064Z,101289.91
2023-02-12T22:56:20.498Z,101290.31
2023-02-12T22:58:47.588Z,101302.94
2023-02-12T23:01:17.959Z,101305.78
2023-02-12T23:03:45.725Z,101292.50
2023-02-12T23:06:23.338Z,101292.13
2023-02-12T23:08:52.409Z,101304.88
2023-02-12T23:11:20.448Z,101307.97
2023-02-12T23:13:47.683Z,101303.31
2023-02-12T23:16:15.019Z,101292.41
2023-02-12T23:18:42.118Z,101293.50
2023-02-12T23:21:09.402Z,101281.06
2023-02-12T23:23:36.336Z,101297.81
2023-02-12T23:26:03.768Z,101306.19
2023-02-12T23:28:31.028Z,101285.19
2023-02-12T23:30:58.759Z,101305.09
2023-02-12T23:33:25.999Z,101311.78
2023-02-12T23:35:52.791Z,101305.91
2023-02-12T23:38:19.759Z,101301.47
2023-02-12T23:40:48.195Z,101306.03
2023-02-12T23:43:15.166Z,101312.09
2023-02-12T23:45:44.537Z,101315.19
2023-02-12T23:48:11.526Z,101320.56
2023-02-12T23:50:38.472Z,101316.69
2023-02-12T23:53:05.575Z,101311.94
2023-02-12T23:55:35.696Z,101322.84
2023-02-12T23:58:04.038Z,101326.84
